Time;durP1;ratioP1;P1;durP2;ratioP2;P2;SDS_P1;SDS_P2;PMS_P1;PMS_P2;Temp;Humidity;BMP_temperature;BMP_pressure;BME280_temperature;BME280_humidity;BME280_pressure;Samples;Min_cycle;Max_cycle;Signal;HPM_P1;HPM_P2
2021/03/26 00:01:46;;;;;;;;;;;;;;;23.88;35.91;100252.28;4484568;32;34615;-56
2021/03/26 00:04:13;;;;;;;;;;;;;;;23.87;35.99;100250.59;4484325;32;34985;-57
2021/03/26 00:06:41;;;;;;;;;;;;;;;23.86;36.06;100248.94;4484006;32;34115;-55
2021/03/26 00:09:11;;;;;;;;;;;;;;;23.85;35.97;100256.28;4484122;32;33248;-55
2021/03/26 00:11:38;;;;;;;;;;;;;;;23.84;36.05;100257.31;4483930;32;34124;-56
2021/03/26 00:14:05;;;;;;;;;;;;;;;23.83;36.07;100246.66;4484216;32;33771;-56
2021/03/26 00:16:32;;;;;;;;;;;;;;;23.83;36.11;100250.22;4482173;31;33742;-59
2021/03/26 00:19:00;;;;;;;;;;;;;;;23.82;36.09;100248.53;4483983;32;33409;-58
2021/03/26 00:21:27;;;;;;;;;;;;;;;23.80;36.15;100247.91;4483979;32;34634;-53
2021/03/26 00:23:54;;;;;;;;;;;;;;;23.80;36.13;100249.81;4482482;32;34157;-56
2021/03/26 00:26:39;;;;;;;;;;;;;;;23.79;36.14;100250.87;4480830;31;32819;-56
2021/03/26 00:29:18;;;;;;;;;;;;;;;23.77;36.23;100255.69;4486533;31;33364;-57
2021/03/26 00:31:45;;;;;;;;;;;;;;;23.77;36.14;100261.13;4483565;32;34919;-54
2021/03/26 00:34:25;;;;;;;;;;;;;;;23.75;36.21;100255.06;4483787;32;34094;-58
2021/03/26 00:36:52;;;;;;;;;;;;;;;23.74;36.19;100256.97;4482351;32;34257;-54
2021/03/26 00:39:19;;;;;;;;;;;;;;;23.74;36.26;100256.12;4483778;32;33574;-56
2021/03/26 00:41:46;;;;;;;;;;;;;;;23.73;36.22;100260.72;4483585;32;34917;-54
2021/03/26 00:44:13;;;;;;;;;;;;;;;23.73;36.24;100257.16;4483875;32;34855;-56
2021/03/26 00:46:40;;;;;;;;;;;;;;;23.71;36.38;100260.13;4483736;32;33624;-55
2021/03/26 00:49:07;;;;;;;;;;;;;;;23.71;36.34;100259.28;4483699;32;33265;-52
2021/03/26 00:51:35;;;;;;;;;;;;;;;23.71;36.40;100253.84;4484067;32;34059;-56
2021/03/26 00:54:02;;;;;;;;;;;;;;;23.70;36.40;100254.91;4485769;32;34085;-57
2021/03/26 00:56:29;;;;;;;;;;;;;;;23.68;36.42;100255.94;4485621;32;34170;-53
2021/03/26 00:58:57;;;;;;;;;;;;;;;23.67;36.34;100251.53;4485645;32;33709;-54
2021/03/26 01:01:24;;;;;;;;;;;;;;;23.67;36.35;100254.25;4485466;32;34900;-56
2021/03/26 01:03:51;;;;;;;;;;;;;;;23.67;36.47;100261.59;4485524;32;34116;-57
2021/03/26 01:06:20;;;;;;;;;;;;;;;23.67;36.37;100259.72;4485655;32;34805;-57
2021/03/26 01:08:48;;;;;;;;;;;;;;;23.66;36.54;100257.22;4485861;32;34055;-51
2021/03/26 01:11:24;;;;;;;;;;;;;;;23.65;36.39;100256.38;4485524;32;34342;-56
2021/03/26 01:13:52;;;;;;;;;;;;;;;23.64;36.45;100254.72;4485599;32;34184;-56
2021/03/26 01:16:21;;;;;;;;;;;;;;;23.63;36.52;100250.25;4485481;32;34190;-53
2021/03/26 01:18:50;;;;;;;;;;;;;;;23.63;36.48;100253.00;4485746;32;33301;-57
2021/03/26 01:21:19;;;;;;;;;;;;;;;23.62;36.44;100248.59;4485492;32;34198;-56
2021/03/26 01:23:47;;;;;;;;;;;;;;;23.62;36.52;100253.22;4485552;32;33722;-54
2021/03/26 01:26:15;;;;;;;;;;;;;;;23.61;36.51;100252.38;4485580;32;34923;-55
2021/03/26 01:28:43;;;;;;;;;;;;;;;23.61;36.47;100251.56;4485603;32;33757;-55
2021/03/26 01:31:14;;;;;;;;;;;;;;;23.59;36.49;100249.03;4483822;31;34370;-57
2021/03/26 01:33:43;;;;;;;;;;;;;;;23.59;36.51;100248.19;4484984;32;34160;-54
2021/03/26 01:36:12;;;;;;;;;;;;;;;23.58;36.52;100246.53;4485511;32;34107;-55
2021/03/26 01:38:40;;;;;;;;;;;;;;;23.57;36.51;100251.13;4469685;32;32932;-56
2021/03/26 01:41:28;;;;;;;;;;;;;;;23.57;36.49;100250.31;4469581;32;34102;-51
2021/03/26 01:43:56;;;;;;;;;;;;;;;23.56;36.52;100251.38;4469685;32;33115;-54
2021/03/26 01:46:26;;;;;;;;;;;;;;;23.55;36.55;100258.72;4469697;32;34066;-53
2021/03/26 01:48:58;;;;;;;;;;;;;;;23.55;36.63;100258.72;4473085;32;33852;-51
2021/03/26 01:51:32;;;;;;;;;;;;;;;23.55;36.68;100255.13;4485291;32;34233;-51
2021/03/26 01:54:00;;;;;;;;;;;;;;;23.54;36.57;100264.34;4485481;32;33813;-52
2021/03/26 01:56:28;;;;;;;;;;;;;;;23.53;36.66;100258.06;4485432;32;34101;-53
2021/03/26 01:58:58;;;;;;;;;;;;;;;23.52;36.66;100259.12;4485392;31;31849;-55
2021/03/26 02:01:27;;;;;;;;;;;;;;;23.52;36.62;100267.31;4485393;32;34220;-55
2021/03/26 02:04:00;;;;;;;;;;;;;;;23.52;36.63;100261.03;4483415;32;34041;-54
2021/03/26 02:06:30;;;;;;;;;;;;;;;23.50;36.62;100261.25;4483470;31;34024;-58
2021/03/26 02:09:15;;;;;;;;;;;;;;;23.50;36.65;100263.97;4483698;32;33767;-58
2021/03/26 02:11:44;;;;;;;;;;;;;;;23.49;36.64;100264.16;4485053;32;33670;-53
2021/03/26 02:14:14;;;;;;;;;;;;;;;23.48;36.66;100268.78;4485136;32;34926;-59
2021/03/26 02:16:42;;;;;;;;;;;;;;;23.48;36.66;100265.22;4483993;32;34138;-59
2021/03/26 02:19:20;;;;;;;;;;;;;;;23.47;36.67;100269.84;4485339;32;32769;-57
2021/03/26 02:21:48;;;;;;;;;;;;;;;23.47;36.67;100269.00;4485322;32;33683;-57
2021/03/26 02:24:15;;;;;;;;;;;;;;;23.46;36.72;100265.44;4475651;32;34180;-60
2021/03/26 02:26:44;;;;;;;;;;;;;;;23.46;36.68;100267.34;4483790;32;33661;-58
2021/03/26 02:29:27;;;;;;;;;;;;;;;23.45;36.67;100269.19;4485190;32;33340;-60
2021/03/26 02:31:55;;;;;;;;;;;;;;;23.45;36.64;100271.09;4485186;32;34115;-60
2021/03/26 02:34:24;;;;;;;;;;;;;;;23.44;36.71;100272.97;4485196;32;34896;-60
2021/03/26 02:37:04;;;;;;;;;;;;;;;23.42;36.72;100270.47;4483453;32;34760;-60
2021/03/26 02:39:39;;;;;;;;;;;;;;;23.43;36.70;100272.16;4485167;32;33256;-59
2021/03/26 02:42:18;;;;;;;;;;;;;;;23.41;36.72;100274.25;4483521;32;33689;-58
2021/03/26 02:45:06;;;;;;;;;;;;;;;23.40;36.78;100269.84;4485133;32;34995;-57
2021/03/26 02:47:52;;;;;;;;;;;;;;;23.40;36.78;100278.00;4484638;31;32731;-58
2021/03/26 02:50:31;;;;;;;;;;;;;;;23.39;36.79;100275.50;4484820;32;34093;-60
2021/03/26 02:53:19;;;;;;;;;;;;;;;23.38;36.80;100279.28;4483909;32;33733;-59
2021/03/26 02:55:59;;;;;;;;;;;;;;;23.37;36.82;100278.47;4483811;32;34274;-54
2021/03/26 02:58:28;;;;;;;;;;;;;;;23.35;36.83;100275.09;4480343;32;34727;-55
2021/03/26 03:01:39;;;;;;;;;;;;;;;23.36;36.80;100284.97;4481735;31;32757;-54
2021/03/26 03:04:08;;;;;;;;;;;;;;;23.36;36.81;100284.97;4445226;32;34876;-55
2021/03/26 03:06:41;;;;;;;;;;;;;;;23.37;36.87;100291.25;4474820;32;33830;-54
2021/03/26 03:09:11;;;;;;;;;;;;;;;23.36;36.87;100292.28;4483696;32;34609;-51
2021/03/26 03:11:49;;;;;;;;;;;;;;;23.35;36.83;100290.59;4483564;32;34145;-55
2021/03/26 03:14:21;;;;;;;;;;;;;;;23.34;36.84;100289.78;4483406;32;34020;-55
2021/03/26 03:16:51;;;;;;;;;;;;;;;23.34;36.86;100292.50;4482436;32;34141;-57
2021/03/26 03:19:43;;;;;;;;;;;;;;;23.35;36.86;100293.34;4484763;32;33811;-56
2021/03/26 03:22:12;;;;;;;;;;;;;;;23.33;36.88;100298.16;4484615;32;34029;-53
2021/03/26 03:24:40;;;;;;;;;;;;;;;23.32;36.92;100291.87;4484815;32;34059;-54
2021/03/26 03:27:26;;;;;;;;;;;;;;;23.32;36.91;100299.22;4483594;32;34120;-54
2021/03/26 03:29:55;;;;;;;;;;;;;;;23.30;36.88;100295.84;4484557;32;33702;-52
2021/03/26 03:32:29;;;;;;;;;;;;;;;23.29;36.90;100300.47;4483361;32;33302;-53
2021/03/26 03:35:15;;;;;;;;;;;;;;;23.30;36.92;100293.12;4483162;32;34167;-55
2021/03/26 03:37:57;;;;;;;;;;;;;;;23.31;36.98;100294.81;4484644;32;33771;-57
2021/03/26 03:40:28;;;;;;;;;;;;;;;23.28;36.95;100298.81;4484641;32;34766;-55
2021/03/26 03:42:58;;;;;;;;;;;;;;;23.28;36.93;100304.25;4484733;32;33392;-54
2021/03/26 03:45:44;;;;;;;;;;;;;;;23.29;36.95;100299.62;4483250;32;34736;-55
2021/03/26 03:48:25;;;;;;;;;;;;;;;23.28;37.01;100301.53;4484623;32;34197;-55
2021/03/26 03:50:57;;;;;;;;;;;;;;;23.26;37.04;100305.50;4484281;32;33600;-52
2021/03/26 03:53:32;;;;;;;;;;;;;;;23.26;37.04;100303.62;4484409;32;33309;-53
2021/03/26 03:56:00;;;;;;;;;;;;;;;23.27;37.04;100307.16;4484275;32;34181;-54
2021/03/26 03:58:28;;;;;;;;;;;;;;;23.26;37.01;100308.22;4484617;32;34860;-53
2021/03/26 04:01:19;;;;;;;;;;;;;;;23.26;37.04;100297.34;4484287;32;34205;-56
2021/03/26 04:03:48;;;;;;;;;;;;;;;23.25;37.06;100306.56;4474981;32;33438;-53
2021/03/26 04:06:16;;;;;;;;;;;;;;;23.25;37.06;100303.84;4483075;32;34858;-55
2021/03/26 04:08:44;;;;;;;;;;;;;;;23.25;37.06;100303.84;4483234;32;33760;-51
2021/03/26 04:11:14;;;;;;;;;;;;;;;23.24;37.03;100313.88;4483178;32;33995;-57
2021/03/26 04:13:42;;;;;;;;;;;;;;;23.24;36.98;100304.91;4483091;32;33046;-54
2021/03/26 04:16:09;;;;;;;;;;;;;;;23.24;36.95;100311.16;4484372;32;34184;-56
2021/03/26 04:18:41;;;;;;;;;;;;;;;23.23;37.04;100304.06;4483182;32;34028;-55
2021/03/26 04:21:17;;;;;;;;;;;;;;;23.24;37.04;100304.91;4484089;32;33784;-54
2021/03/26 04:23:49;;;;;;;;;;;;;;;23.23;37.01;100304.06;4483943;32;32994;-52
2021/03/26 04:26:27;;;;;;;;;;;;;;;23.23;37.05;100308.66;4483613;32;34031;-57
2021/03/26 04:29:04;;;;;;;;;;;;;;;23.23;37.06;100308.66;4482884;32;33594;-55
2021/03/26 04:31:35;;;;;;;;;;;;;;;23.21;37.00;100308.03;4484006;32;35060;-57
2021/03/26 04:34:03;;;;;;;;;;;;;;;23.20;37.09;100304.47;4482932;32;32774;-56
2021/03/26 04:36:37;;;;;;;;;;;;;;;23.21;37.08;100313.47;4482538;32;34145;-55
2021/03/26 04:39:08;;;;;;;;;;;;;;;23.20;37.01;100309.09;4484044;32;34174;-51
2021/03/26 04:41:37;;;;;;;;;;;;;;;23.20;37.11;100319.97;4482586;32;34158;-55
2021/03/26 04:44:06;;;;;;;;;;;;;;;23.20;37.17;100319.97;4484179;32;33274;-55
2021/03/26 04:46:36;;;;;;;;;;;;;;;23.21;37.09;100316.19;4483820;32;35316;-55
2021/03/26 04:49:07;;;;;;;;;;;;;;;23.19;37.19;100316.41;4482761;32;34994;-55
2021/03/26 04:51:39;;;;;;;;;;;;;;;23.20;37.06;100317.25;4483743;32;34275;-53
2021/03/26 04:54:22;;;;;;;;;;;;;;;23.19;37.11;100318.31;4482736;32;33593;-55
2021/03/26 04:56:51;;;;;;;;;;;;;;;23.18;37.05;100320.19;4468165;32;34176;-57
2021/03/26 04:59:20;;;;;;;;;;;;;;;23.17;37.09;100334.84;4483442;32;34153;-57
2021/03/26 05:01:46;;;;;;;;;;;;;;;23.16;37.05;100325.84;4482468;32;34012;-53
2021/03/26 05:04:20;;;;;;;;;;;;;;;23.16;37.15;100328.56;4482190;32;33151;-54
2021/03/26 05:06:49;;;;;;;;;;;;;;;23.16;37.12;100334.00;4482368;32;34196;-54
2021/03/26 05:09:17;;;;;;;;;;;;;;;23.16;37.14;100331.28;4483464;32;34860;-51
2021/03/26 05:11:49;;;;;;;;;;;;;;;23.16;37.13;100335.87;4482268;32;32410;-58
2021/03/26 05:14:23;;;;;;;;;;;;;;;23.16;37.15;100336.72;4483486;32;34073;-52
2021/03/26 05:16:51;;;;;;;;;;;;;;;23.19;37.09;100340.09;4482063;32;34171;-54
2021/03/26 05:19:26;;;;;;;;;;;;;;;23.19;37.02;100331.91;4481977;31;32908;-60
2021/03/26 05:22:07;;;;;;;;;;;;;;;23.19;36.90;100334.63;4482162;32;33670;-56
2021/03/26 05:24:40;;;;;;;;;;;;;;;23.18;36.76;100341.97;4485409;31;33475;-52
2021/03/26 05:27:10;;;;;;;;;;;;;;;23.18;36.95;100341.97;4482074;32;32291;-54
2021/03/26 05:29:38;;;;;;;;;;;;;;;23.17;36.89;100349.31;4477663;32;34106;-56
2021/03/26 05:32:19;;;;;;;;;;;;;;;23.17;36.98;100346.59;4476063;32;34853;-54
2021/03/26 05:35:01;;;;;;;;;;;;;;;23.15;36.94;100348.66;4482044;32;31624;-56
2021/03/26 05:37:32;;;;;;;;;;;;;;;23.14;36.97;100347.00;4481944;32;33702;-51
2021/03/26 05:40:10;;;;;;;;;;;;;;;23.14;36.96;100349.72;4481890;32;34084;-60
2021/03/26 05:43:02;;;;;;;;;;;;;;;23.13;36.96;100356.22;4483618;32;32582;-54
2021/03/26 05:45:38;;;;;;;;;;;;;;;23.14;37.02;100359.78;4478596;31;33414;-52
2021/03/26 05:48:11;;;;;;;;;;;;;;;23.12;37.07;100356.41;4484013;32;34439;-55
2021/03/26 05:50:56;;;;;;;;;;;;;;;23.11;37.06;100366.47;4476479;32;34079;-55
2021/03/26 05:53:30;;;;;;;;;;;;;;;23.12;37.09;100359.97;4485345;32;34067;-55
2021/03/26 05:56:03;;;;;;;;;;;;;;;23.11;37.14;100361.03;4471562;32;31585;-54
2021/03/26 05:58:49;;;;;;;;;;;;;;;23.11;37.10;100371.06;4476793;32;34871;-56
2021/03/26 06:01:28;;;;;;;;;;;;;;;23.11;37.15;100373.78;4485323;32;33826;-52
2021/03/26 06:04:00;;;;;;;;;;;;;;;23.09;37.15;100374.03;4477791;31;36625;-54
2021/03/26 06:06:50;;;;;;;;;;;;;;;23.08;37.12;100366.91;4484807;31;32933;-57
2021/03/26 06:09:39;;;;;;;;;;;;;;;23.08;37.11;100376.94;4483926;32;36638;-51
2021/03/26 06:12:51;;;;;;;;;;;;;;;23.08;37.19;100376.94;4485264;32;34330;-56
2021/03/26 06:15:24;;;;;;;;;;;;;;;23.07;37.15;100384.25;4485325;32;33342;-52
2021/03/26 06:18:20;;;;;;;;;;;;;;;23.07;37.18;100384.25;4485223;32;32771;-56
2021/03/26 06:21:04;;;;;;;;;;;;;;;23.07;37.21;100386.16;4484854;32;34608;-56
2021/03/26 06:23:51;;;;;;;;;;;;;;;23.07;37.15;100386.97;4479534;32;33613;-52
2021/03/26 06:26:37;;;;;;;;;;;;;;;23.07;37.19;100386.16;4487482;31;32940;-55
2021/03/26 06:29:19;;;;;;;;;;;;;;;23.07;37.22;100391.59;4485018;32;33986;-57
2021/03/26 06:31:46;;;;;;;;;;;;;;;23.06;37.25;100387.22;4483753;32;34040;-56
2021/03/26 06:34:33;;;;;;;;;;;;;;;23.04;37.27;100387.41;4485110;32;34168;-55
2021/03/26 06:37:20;;;;;;;;;;;;;;;23.05;37.25;100389.09;4481313;31;34254;-56
2021/03/26 06:39:47;;;;;;;;;;;;;;;23.03;37.24;100390.34;4444511;32;34386;-59
2021/03/26 06:42:25;;;;;;;;;;;;;;;23.05;37.28;100394.53;4484078;32;34847;-52
2021/03/26 06:45:04;;;;;;;;;;;;;;;23.04;37.24;100395.59;4470600;32;34169;-60
2021/03/26 06:47:35;;;;;;;;;;;;;;;23.04;37.15;100398.31;4471763;32;34069;-54
2021/03/26 06:50:20;;;;;;;;;;;;;;;23.03;37.30;100393.88;4486245;31;33357;-53
2021/03/26 06:53:03;;;;;;;;;;;;;;;23.04;37.38;100402.91;4479191;32;34182;-58
2021/03/26 06:55:36;;;;;;;;;;;;;;;23.02;37.39;100399.56;4467913;32;34254;-59
2021/03/26 06:58:03;;;;;;;;;;;;;;;23.02;37.31;100408.56;4476593;32;34102;-59
2021/03/26 07:00:33;;;;;;;;;;;;;;;23.02;37.35;100405.00;4469092;32;33988;-60
2021/03/26 07:03:06;;;;;;;;;;;;;;;23.02;37.31;100405.84;4468873;32;34883;-60
2021/03/26 07:05:40;;;;;;;;;;;;;;;23.01;37.30;100404.16;4468822;32;34131;-59
2021/03/26 07:08:27;;;;;;;;;;;;;;;23.02;37.30;100402.28;4468981;32;34155;-59
2021/03/26 07:11:08;;;;;;;;;;;;;;;23.02;37.29;100411.28;4468680;32;33130;-59
2021/03/26 07:13:38;;;;;;;;;;;;;;;23.01;37.38;100414.22;4484424;32;34084;-58
2021/03/26 07:16:24;;;;;;;;;;;;;;;23.00;37.29;100416.09;4483679;32;34900;-60
2021/03/26 07:18:56;;;;;;;;;;;;;;;23.02;37.31;100413.16;4484420;32;34783;-59
2021/03/26 07:21:42;;;;;;;;;;;;;;;23.00;37.47;100418.00;4483208;32;33285;-59
2021/03/26 07:24:09;;;;;;;;;;;;;;;23.01;37.30;100415.03;4482633;32;34871;-56
2021/03/26 07:26:39;;;;;;;;;;;;;;;23.01;37.43;100419.66;4486591;31;33949;-54
2021/03/26 07:29:30;;;;;;;;;;;;;;;23.05;37.39;100424.47;4484420;32;34969;-56
2021/03/26 07:32:16;;;;;;;;;;;;;;;23.04;37.25;100420.09;4484494;32;34306;-57
2021/03/26 07:35:00;;;;;;;;;;;;;;;23.03;37.51;100421.09;4484376;32;34933;-54
2021/03/26 07:37:46;;;;;;;;;;;;;;;23.02;37.47;100416.72;4484401;32;34656;-57
2021/03/26 07:40:25;;;;;;;;;;;;;;;23.02;37.35;100418.59;4484454;32;33617;-54
2021/03/26 07:43:11;;;;;;;;;;;;;;;23.02;37.26;100419.44;4484386;32;34085;-54
2021/03/26 07:45:40;;;;;;;;;;;;;;;23.03;37.57;100425.72;4484492;32;34070;-55
2021/03/26 07:48:25;;;;;;;;;;;;;;;23.02;37.41;100424.88;4484675;32;33977;-53
2021/03/26 07:50:57;;;;;;;;;;;;;;;23.03;37.35;100423.81;4483242;32;34239;-55
2021/03/26 07:53:43;;;;;;;;;;;;;;;23.02;37.45;100424.88;4484433;32;33379;-54
2021/03/26 07:56:23;;;;;;;;;;;;;;;23.03;37.48;100423.81;4484252;32;34186;-53
2021/03/26 07:59:09;;;;;;;;;;;;;;;23.03;37.40;100420.28;4483164;32;34237;-54
2021/03/26 08:02:05;;;;;;;;;;;;;;;23.02;36.80;100422.16;4483468;32;34780;-52
2021/03/26 08:04:42;;;;;;;;;;;;;;;23.02;36.57;100426.78;4441491;31;33328;-50
2021/03/26 08:07:27;;;;;;;;;;;;;;;23.01;35.85;100415.03;4484360;32;34084;-53
2021/03/26 08:10:10;;;;;;;;;;;;;;;23.00;35.75;100431.59;4484259;32;34933;-51
2021/03/26 08:12:40;;;;;;;;;;;;;;;22.99;36.20;100429.91;4482845;32;34115;-50
2021/03/26 08:15:22;;;;;;;;;;;;;;;22.97;35.85;100429.28;4484247;32;33264;-55
2021/03/26 08:17:52;;;;;;;;;;;;;;;22.95;35.20;100434.94;4484338;32;34822;-50
2021/03/26 08:20:22;;;;;;;;;;;;;;;22.96;35.12;100431.16;4484051;32;33771;-52
2021/03/26 08:22:54;;;;;;;;;;;;;;;22.96;34.91;100430.34;4484049;32;34359;-49
2021/03/26 08:25:32;;;;;;;;;;;;;;;22.95;35.16;100426.78;4482647;32;33134;-52
2021/03/26 08:27:59;;;;;;;;;;;;;;;22.95;34.78;100436.81;4483975;32;34149;-66
2021/03/26 08:30:38;;;;;;;;;;;;;;;22.92;34.13;100435.34;4484043;32;34916;-50
2021/03/26 08:33:11;;;;;;;;;;;;;;;22.92;34.34;100435.34;4483953;32;34768;-54
2021/03/26 08:35:52;;;;;;;;;;;;;;;22.93;34.37;100434.28;4483807;32;33392;-55
2021/03/26 08:38:34;;;;;;;;;;;;;;;22.93;34.47;100439.75;4482646;32;34085;-53
2021/03/26 08:41:05;;;;;;;;;;;;;;;22.91;34.42;100436.41;4482678;32;34065;-52
2021/03/26 08:43:32;;;;;;;;;;;;;;;22.90;34.37;100435.56;4482496;32;34143;-51
2021/03/26 08:46:10;;;;;;;;;;;;;;;22.89;33.98;100436.59;4482422;32;33442;-50
2021/03/26 08:48:56;;;;;;;;;;;;;;;22.90;33.87;100440.19;4482372;32;34212;-55
2021/03/26 08:51:42;;;;;;;;;;;;;;;22.88;33.68;100437.59;4483641;32;34122;-52
2021/03/26 08:54:28;;;;;;;;;;;;;;;22.88;33.68;100439.50;4483709;32;34107;-56
2021/03/26 08:57:04;;;;;;;;;;;;;;;22.86;33.49;100438.88;4490862;31;33297;-54
2021/03/26 08:59:54;;;;;;;;;;;;;;;22.85;33.45;100431.75;4497344;31;34082;-57
2021/03/26 09:02:27;;;;;;;;;;;;;;;22.84;33.44;100444.50;4495637;31;33573;-52
2021/03/26 09:05:10;;;;;;;;;;;;;;;22.84;33.40;100435.50;4495455;31;34008;-52
2021/03/26 09:07:40;;;;;;;;;;;;;;;22.83;33.51;100442.84;4499369;31;34148;-54
2021/03/26 09:10:07;;;;;;;;;;;;;;;22.71;33.52;100443.66;4483894;31;34967;-54
2021/03/26 09:12:52;;;;;;;;;;;;;;;22.71;33.70;100449.09;4477145;31;34935;-56
2021/03/26 09:15:25;;;;;;;;;;;;;;;22.75;33.67;100444.91;4483398;32;34277;-51
2021/03/26 09:18:00;;;;;;;;;;;;;;;22.67;33.46;100444.06;4489012;31;34204;-56
2021/03/26 09:20:30;;;;;;;;;;;;;;;22.71;33.76;100449.09;4491989;31;34149;-51
2021/03/26 09:23:01;;;;;;;;;;;;;;;22.72;33.59;100446.19;4496145;31;35250;-51
2021/03/26 09:25:41;;;;;;;;;;;;;;;22.65;33.41;100446.16;4470929;32;33591;-54
2021/03/26 09:28:08;;;;;;;;;;;;;;;22.65;33.55;100454.31;4485216;32;32887;-52
2021/03/26 09:30:36;;;;;;;;;;;;;;;22.63;33.58;100452.84;4485078;31;34093;-52
2021/03/26 09:33:06;;;;;;;;;;;;;;;22.73;33.63;100447.84;4483935;32;34180;-51
2021/03/26 09:35:37;;;;;;;;;;;;;;;22.78;33.34;100453.50;4484975;32;34851;-58
2021/03/26 09:38:13;;;;;;;;;;;;;;;22.80;33.25;100448.72;4484920;32;34060;-55
2021/03/26 09:41:00;;;;;;;;;;;;;;;22.80;33.12;100446.00;4485180;31;34350;-54
2021/03/26 09:43:45;;;;;;;;;;;;;;;22.78;33.22;100450.78;4469195;32;34162;-49
2021/03/26 09:46:14;;;;;;;;;;;;;;;22.71;33.26;100441.78;4469589;32;33988;-53
2021/03/26 09:48:41;;;;;;;;;;;;;;;22.73;33.35;100439.69;4468554;32;34233;-54
2021/03/26 09:51:27;;;;;;;;;;;;;;;22.76;33.08;100438.44;4483722;31;34250;-52
2021/03/26 09:53:55;;;;;;;;;;;;;;;22.69;33.34;100438.41;4484933;32;34214;-55
2021/03/26 09:56:25;;;;;;;;;;;;;;;22.74;33.25;100432.34;4483034;32;33731;-57
2021/03/26 09:58:59;;;;;;;;;;;;;;;22.77;33.13;100440.94;4485259;32;33392;-54
2021/03/26 10:01:33;;;;;;;;;;;;;;;22.80;33.28;100436.97;4485330;31;34790;-51
2021/03/26 10:04:03;;;;;;;;;;;;;;;22.80;33.31;100426.94;4485114;32;34127;-55
2021/03/26 10:07:28;;;;;;;;;;;;;;;22.82;33.25;100429.44;4482880;32;34224;-55
2021/03/26 10:10:43;;;;;;;;;;;;;;;22.82;33.17;100429.44;4489852;31;33460;-48
2021/03/26 10:12:45;;;;;;;;;;;;;;;22.83;33.34;100428.41;4474733;32;33837;-50
2021/03/26 10:15:19;;;;;;;;;;;;;;;22.80;33.00;100426.94;4483455;32;34209;-53
2021/03/26 10:17:59;;;;;;;;;;;;;;;22.82;32.92;100427.56;4483718;32;34055;-54
2021/03/26 10:20:29;;;;;;;;;;;;;;;22.82;32.79;100427.56;4476535;32;32870;-55
2021/03/26 10:23:07;;;;;;;;;;;;;;;22.81;32.69;100420.44;4482639;32;34040;-55
2021/03/26 10:25:36;;;;;;;;;;;;;;;22.81;32.70;100422.34;4472213;32;34031;-52
2021/03/26 10:28:04;;;;;;;;;;;;;;;22.81;33.02;100419.63;4470508;32;34041;-55
2021/03/26 10:30:32;;;;;;;;;;;;;;;22.82;33.09;100421.28;4470841;32;33353;-54
2021/03/26 10:33:08;;;;;;;;;;;;;;;22.83;33.09;100423.78;4467227;32;34536;-56
2021/03/26 10:35:36;;;;;;;;;;;;;;;22.83;33.13;100412.06;4469175;32;33947;-51
2021/03/26 10:38:13;;;;;;;;;;;;;;;22.83;33.13;100422.94;4467679;32;34150;-57
2021/03/26 10:41:00;;;;;;;;;;;;;;;22.80;33.15;100424.22;4467879;32;33259;-53
2021/03/26 10:43:33;;;;;;;;;;;;;;;22.83;33.19;100412.06;4481936;32;34244;-56
2021/03/26 10:46:07;;;;;;;;;;;;;;;22.83;33.21;100412.06;4483877;32;34135;-52
2021/03/26 10:48:47;;;;;;;;;;;;;;;22.85;33.20;100410.00;4483642;32;34028;-54
2021/03/26 10:51:20;;;;;;;;;;;;;;;22.86;33.20;100412.50;4484701;32;34031;-57
2021/03/26 10:53:48;;;;;;;;;;;;;;;22.88;33.23;100415.84;4484390;32;34099;-51
2021/03/26 10:56:34;;;;;;;;;;;;;;;22.87;33.16;100413.34;4483463;32;34082;-56
2021/03/26 10:59:03;;;;;;;;;;;;;;;22.88;33.25;100409.56;4484536;32;34733;-53
2021/03/26 11:01:37;;;;;;;;;;;;;;;22.87;33.23;100407.88;4470347;32;34090;-56
2021/03/26 11:04:24;;;;;;;;;;;;;;;22.88;33.18;100404.13;4484519;32;34818;-55
2021/03/26 11:06:53;;;;;;;;;;;;;;;22.90;33.12;100396.63;4484273;31;34940;-54
2021/03/26 11:09:21;;;;;;;;;;;;;;;22.89;33.04;100397.66;4483002;32;34252;-50
2021/03/26 11:11:53;;;;;;;;;;;;;;;22.90;33.08;100391.19;4484359;32;33043;-54
2021/03/26 11:14:41;;;;;;;;;;;;;;;22.90;33.09;100391.19;4484484;32;34193;-53
2021/03/26 11:17:16;;;;;;;;;;;;;;;22.90;33.10;100391.19;4484673;32;35081;-57
2021/03/26 11:19:46;;;;;;;;;;;;;;;22.89;33.10;100381.31;4482653;32;34236;-56
2021/03/26 11:22:17;;;;;;;;;;;;;;;22.88;32.92;100377.75;4483254;32;32913;-55
2021/03/26 11:24:54;;;;;;;;;;;;;;;22.87;32.63;100377.97;4484438;32;34079;-53
2021/03/26 11:27:23;;;;;;;;;;;;;;;22.90;32.53;100380.31;4483223;32;35030;-52
2021/03/26 11:30:10;;;;;;;;;;;;;;;22.75;32.68;100383.16;4484791;32;34769;-49
2021/03/26 11:32:36;;;;;;;;;;;;;;;22.74;32.75;100369.78;4484351;32;33023;-53
2021/03/26 11:35:08;;;;;;;;;;;;;;;22.73;32.73;100362.69;4483222;32;34721;-57
2021/03/26 11:37:54;;;;;;;;;;;;;;;22.66;32.83;100358.09;4482123;32;35258;-56
2021/03/26 11:40:26;;;;;;;;;;;;;;;22.70;32.93;100366.63;4483367;32;34797;-53
2021/03/26 11:42:54;;;;;;;;;;;;;;;22.73;32.77;100357.25;4484543;32;32895;-56
2021/03/26 11:45:21;;;;;;;;;;;;;;;22.75;33.10;100350.53;4483019;32;34167;-54
2021/03/26 11:47:55;;;;;;;;;;;;;;;22.80;32.84;100348.03;4484811;32;34932;-52
2021/03/26 11:50:24;;;;;;;;;;;;;;;22.81;32.93;100343.44;4483132;32;34259;-57
2021/03/26 11:52:57;;;;;;;;;;;;;;;22.81;32.47;100335.28;4483174;32;34185;-50
2021/03/26 11:55:29;;;;;;;;;;;;;;;22.79;32.34;100340.06;4484773;32;34216;-52
2021/03/26 11:58:14;;;;;;;;;;;;;;;22.80;32.26;100336.28;4484108;32;34104;-52
2021/03/26 12:00:41;;;;;;;;;;;;;;;22.79;32.18;100335.47;4484368;32;34197;-56
2021/03/26 12:03:18;;;;;;;;;;;;;;;22.79;32.13;100331.91;4484049;32;33320;-54
2021/03/26 12:06:01;;;;;;;;;;;;;;;22.79;32.10;100331.91;4485682;31;33856;-51
2021/03/26 12:08:30;;;;;;;;;;;;;;;22.77;32.03;100326.69;4499905;31;33648;-55
2021/03/26 12:11:04;;;;;;;;;;;;;;;22.76;32.26;100330.47;4485688;31;33749;-54
2021/03/26 12:13:35;;;;;;;;;;;;;;;22.76;32.25;100324.19;4485869;31;33281;-51
2021/03/26 12:16:19;;;;;;;;;;;;;;;22.74;32.36;100329.81;4476599;32;33740;-57
2021/03/26 12:18:53;;;;;;;;;;;;;;;22.70;32.53;100312.22;4479924;32;35500;-53
2021/03/26 12:21:23;;;;;;;;;;;;;;;22.74;32.41;100320.81;4483917;32;33699;-51
2021/03/26 12:24:13;;;;;;;;;;;;;;;22.74;32.53;100304.50;4482600;32;33380;-51
2021/03/26 12:27:00;;;;;;;;;;;;;;;22.74;32.62;100305.31;4452726;31;34843;-49
2021/03/26 12:29:32;;;;;;;;;;;;;;;22.72;32.69;100309.31;4482540;32;35149;-49
2021/03/26 12:32:05;;;;;;;;;;;;;;;22.74;32.71;100302.63;4483689;32;32933;-51
2021/03/26 12:34:52;;;;;;;;;;;;;;;22.74;32.74;100301.78;4483524;32;34359;-51
2021/03/26 12:37:39;;;;;;;;;;;;;;;22.76;32.73;100302.41;4483255;32;33756;-53
2021/03/26 12:40:13;;;;;;;;;;;;;;;22.77;32.75;100294.03;4459139;32;34955;-51
2021/03/26 12:42:41;;;;;;;;;;;;;;;22.81;32.91;100294.47;4480344;32;33812;-53
2021/03/26 12:45:16;;;;;;;;;;;;;;;22.81;32.94;100287.13;4470647;32;33491;-52
2021/03/26 12:47:47;;;;;;;;;;;;;;;22.82;33.01;100288.81;4484676;32;34136;-52
2021/03/26 12:50:25;;;;;;;;;;;;;;;22.84;33.12;100289.41;4487630;32;34672;-55
2021/03/26 12:53:00;;;;;;;;;;;;;;;22.84;33.21;100277.69;4487607;32;33829;-51
2021/03/26 12:55:31;;;;;;;;;;;;;;;22.84;33.26;100277.69;4487692;32;34269;-48
2021/03/26 12:58:16;;;;;;;;;;;;;;;22.85;33.38;100276.66;4486885;31;34966;-50
2021/03/26 13:00:49;;;;;;;;;;;;;;;22.84;33.42;100275.81;4488750;32;33796;-54
2021/03/26 13:03:18;;;;;;;;;;;;;;;22.85;33.52;100271.22;4488327;32;33812;-53
2021/03/26 13:05:54;;;;;;;;;;;;;;;22.84;33.58;100273.09;4487402;32;33326;-49
2021/03/26 13:08:21;;;;;;;;;;;;;;;22.85;33.63;100274.78;4486982;32;34207;-54
2021/03/26 13:11:05;;;;;;;;;;;;;;;22.87;33.70;100274.56;4488519;32;34270;-51
2021/03/26 13:13:42;;;;;;;;;;;;;;;22.88;33.75;100266.19;4488251;32;34117;-48
2021/03/26 13:16:14;;;;;;;;;;;;;;;22.88;33.83;100262.62;4478686;32;34064;-51